Time;durP1;ratioP1;P1;durP2;ratioP2;P2;SDS_P1;SDS_P2;PMS_P1;PMS_P2;Temp;Humidity;BMP_temperature;BMP_pressure;BME280_temperature;BME280_humidity;BME280_pressure;Samples;Min_cycle;Max_cycle;Signal;HPM_P1;HPM_P2
2023/04/30 00:00:09;;;;;;;8.30;4.03;;;;;;;9.60;51.34;100292.44;1757390;82;21012;-55
2023/04/30 00:02:38;;;;;;;7.28;3.62;;;;;;;9.61;51.34;100290.55;1757381;82;21062;-55
2023/04/30 00:05:08;;;;;;;8.08;3.75;;;;;;;9.59;51.36;100282.55;1757345;82;21034;-56
2023/04/30 00:07:41;;;;;;;8.50;3.70;;;;;;;9.57;51.53;100291.46;1757447;82;21375;-56
2023/04/30 00:10:10;;;;;;;9.98;3.70;;;;;;;9.56;51.46;100300.71;1757094;82;21011;-55
2023/04/30 00:12:39;;;;;;;6.50;3.37;;;;;;;9.55;51.47;100294.91;1757087;82;21106;-56
2023/04/30 00:15:09;;;;;;;7.25;3.30;;;;;;;9.52;51.39;100294.78;1757038;82;21031;-54
2023/04/30 00:17:38;;;;;;;6.50;3.40;;;;;;;9.52;51.30;100293.41;1757067;82;21545;-54
2023/04/30 00:20:13;;;;;;;7.60;3.83;;;;;;;9.53;51.32;100286.05;1757232;82;21054;-55
2023/04/30 00:22:42;;;;;;;10.60;3.98;;;;;;;9.53;51.35;100275.11;1757353;82;21047;-56
2023/04/30 00:25:11;;;;;;;10.15;4.75;;;;;;;9.53;51.40;100269.64;1757105;82;21019;-56
2023/04/30 00:27:40;;;;;;;8.73;4.00;;;;;;;9.51;51.29;100280.78;1757302;82;21016;-55
2023/04/30 00:30:11;;;;;;;10.30;4.30;;;;;;;9.53;51.40;100275.11;1757266;82;21043;-56
2023/04/30 00:32:42;;;;;;;7.53;3.92;;;;;;;9.54;51.33;100275.44;1757379;82;21055;-56
2023/04/30 00:35:11;;;;;;;9.93;3.90;;;;;;;9.53;51.35;100266.39;1757315;82;21020;-55
2023/04/30 00:37:40;;;;;;;8.63;4.15;;;;;;;9.51;51.36;100258.05;1757170;82;21007;-56
2023/04/30 00:40:11;;;;;;;7.65;3.70;;;;;;;9.50;51.29;100261.83;1757403;82;21031;-56
2023/04/30 00:42:40;;;;;;;7.65;3.77;;;;;;;9.51;51.23;100258.05;1757276;82;21011;-55
2023/04/30 00:45:10;;;;;;;6.35;3.42;;;;;;;9.48;51.12;100247.50;1757295;81;21031;-56
2023/04/30 00:47:40;;;;;;;6.92;3.52;;;;;;;9.47;51.00;100251.27;1757057;82;21015;-55
2023/04/30 00:50:10;;;;;;;7.35;3.40;;;;;;;9.45;51.04;100244.63;1757180;81;20984;-57
2023/04/30 00:52:39;;;;;;;6.47;3.17;;;;;;;9.46;50.96;100242.22;1757139;82;21043;-56
2023/04/30 00:55:11;;;;;;;6.65;3.05;;;;;;;9.47;50.90;100243.07;1757106;82;21035;-54
2023/04/30 00:57:41;;;;;;;6.75;3.10;;;;;;;9.47;50.82;100236.23;1757424;82;21012;-55
2023/04/30 01:00:12;;;;;;;8.30;3.08;;;;;;;9.47;50.77;100238.45;1757139;82;21019;-55
2023/04/30 01:02:41;;;;;;;6.30;2.80;;;;;;;9.46;50.69;100234.54;1757352;82;21004;-56
2023/04/30 01:05:11;;;;;;;7.60;3.10;;;;;;;9.40;50.70;100238.05;1757180;82;21007;-55
2023/04/30 01:07:44;;;;;;;6.35;3.30;;;;;;;9.36;50.87;100232.65;1757150;82;21322;-55
2023/04/30 01:10:14;;;;;;;5.53;3.10;;;;;;;9.33;50.93;100239.34;1757262;82;21064;-55
2023/04/30 01:12:53;;;;;;;5.65;2.77;;;;;;;9.29;50.99;100235.31;1757226;81;21027;-54
2023/04/30 01:15:46;;;;;;;5.67;2.72;;;;;;;9.26;50.96;100240.31;1757509;82;21447;-55
2023/04/30 01:18:27;;;;;;;7.80;2.80;;;;;;;9.23;51.10;100238.81;1757281;82;21015;-56
2023/04/30 01:21:03;;;;;;;8.08;2.90;;;;;;;9.20;51.13;100236.47;1757297;82;21470;-55
2023/04/30 01:23:53;;;;;;;5.37;2.70;;;;;;;9.12;51.24;100234.70;1757187;82;21023;-56
2023/04/30 01:26:59;;;;;;;6.40;2.90;;;;;;;9.09;51.34;100236.42;1757094;80;21032;-56
2023/04/30 01:29:28;;;;;;;8.30;3.00;;;;;;;9.05;51.47;100228.27;1756965;82;21447;-55
2023/04/30 01:31:57;;;;;;;7.67;3.02;;;;;;;9.03;52.06;100228.14;1757279;80;21086;-55
2023/04/30 01:34:26;;;;;;;5.75;2.60;;;;;;;9.04;52.20;100227.95;1757332;82;21089;-54
2023/04/30 01:37:31;;;;;;;4.87;2.87;;;;;;;9.03;51.94;100228.98;1757141;80;21058;-56
2023/04/30 01:40:24;;;;;;;6.70;2.70;;;;;;;9.01;52.03;100218.77;1757274;82;21078;-56
2023/04/30 01:43:27;;;;;;;6.87;2.70;;;;;;;8.96;51.86;100222.59;1757489;82;21051;-55
2023/04/30 01:46:18;;;;;;;8.83;3.02;;;;;;;8.93;51.92;100216.15;1747474;82;21028;-56
2023/04/30 01:49:08;;;;;;;4.62;2.40;;;;;;;8.94;51.99;100213.74;1743772;82;20992;-54
2023/04/30 01:51:43;;;;;;;6.00;2.75;;;;;;;8.96;51.90;100214.40;1743811;82;21487;-56
2023/04/30 01:54:20;;;;;;;5.45;2.30;;;;;;;8.95;51.92;100209.13;1744139;82;21067;-56
2023/04/30 01:57:06;;;;;;;4.35;2.30;;;;;;;8.87;52.00;100205.47;1744098;82;21072;-60
2023/04/30 01:59:37;;;;;;;5.97;2.75;;;;;;;8.83;52.15;100206.04;1743929;82;21464;-54
2023/04/30 02:02:06;;;;;;;4.55;2.67;;;;;;;8.83;52.19;100203.31;1743908;82;21008;-57
2023/04/30 02:04:35;;;;;;;6.42;2.70;;;;;;;8.84;52.28;100205.00;1743911;82;21035;-56
2023/04/30 02:07:05;;;;;;;4.83;2.40;;;;;;;8.79;52.38;100198.75;1743986;82;20976;-56
2023/04/30 02:09:35;;;;;;;8.08;2.80;;;;;;;8.77;52.44;100197.24;1743942;82;21043;-55
2023/04/30 02:12:04;;;;;;;5.12;2.50;;;;;;;8.72;52.71;100195.60;1743800;82;21028;-55
2023/04/30 02:14:33;;;;;;;4.97;2.42;;;;;;;8.72;52.86;100188.77;1743876;82;21020;-55
2023/04/30 02:17:03;;;;;;;6.30;2.40;;;;;;;8.71;53.00;100191.18;1743866;82;21048;-56
2023/04/30 02:19:32;;;;;;;5.15;2.67;;;;;;;8.70;53.04;100185.39;1743780;82;21060;-56
2023/04/30 02:22:01;;;;;;;6.60;2.67;;;;;;;8.69;53.07;100190.52;1744080;81;21068;-55
2023/04/30 02:24:30;;;;;;;4.95;2.40;;;;;;;8.66;53.18;100190.39;1744084;82;21143;-55
2023/04/30 02:27:00;;;;;;;5.40;2.40;;;;;;;8.64;53.45;100193.83;1744139;82;21039;-56
2023/04/30 02:29:28;;;;;;;4.55;2.17;;;;;;;8.61;53.49;100182.44;1743911;82;21012;-57
2023/04/30 02:31:58;;;;;;;6.05;2.45;;;;;;;8.62;53.18;100181.39;1744186;82;21020;-56
2023/04/30 02:34:27;;;;;;;5.30;2.15;;;;;;;8.64;53.13;100190.25;1744080;82;21016;-57
2023/04/30 02:36:56;;;;;;;3.15;1.87;;;;;;;8.61;53.23;100188.75;1744212;81;21481;-55
2023/04/30 02:39:25;;;;;;;3.90;2.02;;;;;;;8.58;53.67;100194.06;1744254;82;21004;-55
2023/04/30 02:41:54;;;;;;;4.87;2.42;;;;;;;8.55;53.63;100194.45;1743991;82;20977;-55
2023/04/30 02:44:23;;;;;;;5.50;2.10;;;;;;;8.53;53.59;100191.06;1743828;82;21468;-56
2023/04/30 02:46:52;;;;;;;6.85;2.35;;;;;;;8.53;53.61;100188.33;1756590;82;21043;-55
2023/04/30 02:49:21;;;;;;;5.58;1.98;;;;;;;8.56;53.60;100189.84;1757426;82;21039;-55
2023/04/30 02:51:49;;;;;;;4.03;2.00;;;;;;;8.56;53.50;100193.93;1757354;82;21399;-56
2023/04/30 02:54:18;;;;;;;7.00;2.20;;;;;;;8.56;53.62;100194.78;1757492;81;21019;-56
2023/04/30 02:56:47;;;;;;;5.65;1.85;;;;;;;8.57;53.54;100191.01;1757178;82;21068;-55
2023/04/30 02:59:16;;;;;;;3.87;2.12;;;;;;;8.57;53.61;100186.91;1757424;80;21012;-56
2023/04/30 03:01:45;;;;;;;4.90;1.92;;;;;;;8.60;53.76;100183.47;1757149;82;21047;-56
2023/04/30 03:04:14;;;;;;;5.80;2.27;;;;;;;8.57;53.72;100180.09;1757125;82;21031;-56
2023/04/30 03:06:43;;;;;;;4.80;2.15;;;;;;;8.61;53.83;100182.44;1757145;82;21043;-55
2023/04/30 03:09:13;;;;;;;4.20;2.12;;;;;;;8.61;54.32;100173.72;1757558;82;21055;-55
2023/04/30 03:11:43;;;;;;;5.10;2.30;;;;;;;8.61;54.14;100180.55;1757816;82;21075;-55
2023/04/30 03:14:11;;;;;;;4.22;2.35;;;;;;;8.63;54.16;100170.80;1757953;82;21019;-56
2023/04/30 03:16:40;;;;;;;4.90;1.80;;;;;;;8.66;54.15;100175.88;1757515;80;21047;-55
2023/04/30 03:19:11;;;;;;;3.65;1.90;;;;;;;8.67;53.93;100168.02;1757369;82;21039;-55
2023/04/30 03:21:40;;;;;;;6.87;1.85;;;;;;;8.67;54.20;100170.75;1757119;80;21016;-56
2023/04/30 03:24:09;;;;;;;5.33;2.60;;;;;;;8.66;54.59;100174.00;1757136;82;21034;-54
2023/04/30 03:26:38;;;;;;;6.12;2.62;;;;;;;8.66;54.56;100175.88;1757587;82;21501;-55
2023/04/30 03:29:07;;;;;;;6.47;2.85;;;;;;;8.66;54.60;100182.71;1757096;82;21050;-55
2023/04/30 03:31:36;;;;;;;6.90;2.87;;;;;;;8.68;54.71;100179.27;1757377;82;21431;-56
2023/04/30 03:34:05;;;;;;;5.60;2.75;;;;;;;8.66;54.57;100182.19;1757183;82;21015;-56
2023/04/30 03:36:34;;;;;;;6.12;2.42;;;;;;;8.67;54.67;100180.31;1757238;82;21099;-58
2023/04/30 03:39:03;;;;;;;7.78;2.80;;;;;;;8.68;54.85;100180.63;1757159;82;21047;-56
2023/04/30 03:41:32;;;;;;;5.72;2.67;;;;;;;8.70;54.69;100179.92;1757375;80;21019;-56
2023/04/30 03:44:01;;;;;;;6.65;1.82;;;;;;;8.72;54.68;100180.06;1757172;82;21035;-55
2023/04/30 03:46:31;;;;;;;4.42;2.10;;;;;;;8.75;54.55;100176.09;1757004;81;21095;-57
2023/04/30 03:49:00;;;;;;;5.25;2.27;;;;;;;8.80;54.18;100175.01;1757083;82;21051;-56
2023/04/30 03:51:30;;;;;;;4.40;2.12;;;;;;;8.85;54.17;100177.48;1757213;82;21027;-55
2023/04/30 03:54:00;;;;;;;4.08;2.12;;;;;;;8.83;54.42;100171.89;1757161;82;21059;-55
2023/04/30 03:56:29;;;;;;;3.92;1.70;;;;;;;8.85;54.43;100169.81;1757370;81;21471;-56
2023/04/30 03:58:58;;;;;;;4.00;1.90;;;;;;;8.89;54.52;100176.06;1757321;82;21031;-56
2023/04/30 04:01:29;;;;;;;4.47;2.10;;;;;;;8.91;54.34;100171.78;1757316;82;21043;-57
2023/04/30 04:03:58;;;;;;;4.75;1.98;;;;;;;8.95;54.21;100172.23;1757296;82;21635;-55
2023/04/30 04:06:28;;;;;;;3.30;1.90;;;;;;;9.00;54.04;100177.45;1757500;82;21031;-57
2023/04/30 04:08:59;;;;;;;3.67;1.90;;;;;;;9.05;53.90;100176.87;1757265;82;21059;-57
2023/04/30 04:11:28;;;;;;;5.00;1.70;;;;;;;9.07;54.17;100170.69;1757088;82;21019;-56
2023/04/30 04:13:57;;;;;;;3.80;2.08;;;;;;;9.07;54.01;100180.25;1740613;82;21451;-56
2023/04/30 04:16:26;;;;;;;7.67;2.40;;;;;;;9.12;54.14;100178.67;1757323;82;21050;-56
2023/04/30 04:18:55;;;;;;;4.67;1.70;;;;;;;9.15;53.96;100174.18;1757112;82;21466;-56
2023/04/30 04:21:24;;;;;;;4.87;1.95;;;;;;;9.17;53.90;100169.36;1757083;81;21016;-56
2023/04/30 04:23:53;;;;;;;4.28;1.70;;;;;;;9.21;53.77;100169.82;1757058;80;21087;-56
2023/04/30 04:26:24;;;;;;;5.60;1.82;;;;;;;9.23;54.04;100160.91;1757092;82;21098;-55
2023/04/30 04:28:53;;;;;;;4.72;1.90;;;;;;;9.24;54.09;100162.59;1757080;82;21015;-56
2023/04/30 04:31:22;;;;;;;3.52;1.90;;;;;;;9.24;54.00;100161.75;1757109;82;21543;-57
2023/04/30 04:33:56;;;;;;;5.42;2.17;;;;;;;9.25;54.02;100159.34;1757169;80;21015;-56
2023/04/30 04:36:22;;;;;;;6.53;2.00;;;;;;;9.28;54.01;100161.69;1756789;81;21020;-56
2023/04/30 04:38:52;;;;;;;5.70;2.75;;;;;;;9.30;54.04;100174.12;1757139;82;21011;-55
2023/04/30 04:41:23;;;;;;;5.83;2.40;;;;;;;9.31;54.25;100164.03;1756928;82;21489;-57
2023/04/30 04:43:52;;;;;;;4.55;2.33;;;;;;;9.30;54.37;100171.39;1756908;82;21063;-57
2023/04/30 04:46:21;;;;;;;5.60;2.42;;;;;;;9.35;54.40;100159.86;1736043;82;21056;-56
2023/04/30 04:48:52;;;;;;;4.47;2.35;;;;;;;9.40;54.34;100165.59;1744026;82;21051;-55
2023/04/30 04:51:20;;;;;;;4.92;2.22;;;;;;;9.45;54.23;100163.11;1743829;82;21090;-56
2023/04/30 04:53:49;;;;;;;7.47;2.27;;;;;;;9.49;54.16;100170.73;1743839;81;21075;-56
2023/04/30 04:56:19;;;;;;;5.22;2.00;;;;;;;9.51;54.11;100167.80;1733657;82;21502;-57
2023/04/30 04:58:48;;;;;;;5.67;2.35;;;;;;;9.53;54.10;100167.92;1744018;82;21086;-55
2023/04/30 05:01:17;;;;;;;4.75;2.20;;;;;;;9.58;54.04;100170.59;1744008;82;21047;-56
2023/04/30 05:03:48;;;;;;;6.42;2.40;;;;;;;9.64;53.97;100174.75;1743745;81;21080;-57
2023/04/30 05:06:17;;;;;;;3.47;2.08;;;;;;;9.69;53.85;100173.64;1743765;82;21028;-55
2023/04/30 05:08:46;;;;;;;5.05;2.10;;;;;;;9.74;53.68;100174.41;1743728;82;21043;-55
2023/04/30 05:11:18;;;;;;;5.78;2.67;;;;;;;9.79;53.58;100171.44;1743817;82;21047;-56
2023/04/30 05:13:46;;;;;;;4.30;2.17;;;;;;;9.85;53.46;100162.44;1743726;82;21494;-57
2023/04/30 05:16:15;;;;;;;4.03;1.82;;;;;;;9.90;53.43;100161.84;1743997;82;21036;-56
2023/04/30 05:18:45;;;;;;;4.60;1.80;;;;;;;9.95;53.25;100159.34;1744037;81;20992;-57
2023/04/30 05:21:14;;;;;;;5.92;2.10;;;;;;;10.02;53.08;100159.39;1743825;82;21048;-55
2023/04/30 05:23:44;;;;;;;5.40;2.02;;;;;;;10.08;52.85;100165.44;1743820;82;21067;-57
2023/04/30 05:26:13;;;;;;;3.87;1.98;;;;;;;10.10;52.72;100165.56;1744219;82;21140;-58
2023/04/30 05:28:41;;;;;;;5.78;2.00;;;;;;;10.14;52.57;100168.73;1743908;81;21424;-56
2023/04/30 05:31:11;;;;;;;3.40;1.67;;;;;;;10.18;52.51;100168.66;1743918;81;21024;-56
2023/04/30 05:33:41;;;;;;;4.12;1.70;;;;;;;10.23;52.32;100163.45;1743895;82;21008;-57
2023/04/30 05:36:10;;;;;;;4.08;1.90;;;;;;;10.27;52.14;100157.91;1744051;82;21012;-56
2023/04/30 05:38:39;;;;;;;3.87;1.80;;;;;;;10.31;51.97;100155.60;1743990;82;21055;-55
2023/04/30 05:41:10;;;;;;;4.47;1.90;;;;;;;10.34;51.77;100151.94;1743857;82;21008;-57
2023/04/30 05:43:39;;;;;;;3.22;1.77;;;;;;;10.36;51.63;100155.84;1743829;82;21004;-57
2023/04/30 05:46:08;;;;;;;2.72;1.50;;;;;;;10.38;51.43;100154.59;1747073;82;21035;-56
2023/04/30 05:48:37;;;;;;;3.75;1.95;;;;;;;10.41;51.18;100151.48;1757158;81;21091;-56
2023/04/30 05:51:06;;;;;;;4.20;1.98;;;;;;;10.47;51.17;100147.92;1757223;82;21055;-56
2023/04/30 05:53:35;;;;;;;4.12;1.72;;;;;;;10.53;51.01;100139.42;1757188;82;21016;-57
2023/04/30 05:56:05;;;;;;;3.20;1.77;;;;;;;10.59;51.01;100143.23;1757127;80;21074;-57
2023/04/30 05:58:34;;;;;;;2.95;1.65;;;;;;;10.62;50.90;100142.30;1757233;81;21071;-56
2023/04/30 06:01:04;;;;;;;5.35;2.15;;;;;;;10.67;50.66;100143.91;1757196;82;21078;-55
2023/04/30 06:03:32;;;;;;;5.70;2.50;;;;;;;10.72;50.50;100139.18;1757141;82;21463;-55
2023/04/30 06:06:01;;;;;;;5.05;1.75;;;;;;;10.76;50.20;100144.05;1757156;82;21035;-56
2023/04/30 06:08:30;;;;;;;3.90;2.00;;;;;;;10.78;50.06;100139.73;1757372;82;21086;-56
2023/04/30 06:11:02;;;;;;;3.83;1.80;;;;;;;10.79;50.10;100141.42;1757312;82;21023;-57
2023/04/30 06:13:31;;;;;;;5.35;1.92;;;;;;;10.85;49.80;100139.23;1757141;82;21031;-57
2023/04/30 06:16:00;;;;;;;6.20;2.10;;;;;;;10.89;49.49;100130.91;1757152;80;21667;-56
2023/04/30 06:18:29;;;;;;;2.40;1.55;;;;;;;10.94;49.30;100128.39;1757133;82;21411;-56
2023/04/30 06:20:58;;;;;;;3.42;1.67;;;;;;;11.02;49.25;100132.31;1757039;82;21447;-55
2023/04/30 06:23:26;;;;;;;6.42;2.00;;;;;;;11.08;48.12;100137.00;1757092;80;21023;-56
2023/04/30 06:25:56;;;;;;;4.08;1.65;;;;;;;11.13;47.71;100134.16;1757183;80;21051;-56
2023/04/30 06:28:25;;;;;;;3.33;1.60;;;;;;;11.16;47.56;100130.48;1757423;82;21023;-58
2023/04/30 06:30:54;;;;;;;4.45;1.77;;;;;;;11.16;47.39;100123.62;1740628;82;21027;-56
2023/04/30 06:33:23;;;;;;;2.85;1.60;;;;;;;11.19;46.91;100124.58;1757269;80;21051;-55
2023/04/30 06:35:54;;;;;;;4.28;1.55;;;;;;;11.22;46.72;100128.27;1757077;82;21039;-55
2023/04/30 06:38:23;;;;;;;2.55;1.65;;;;;;;11.28;46.60;100122.48;1757685;80;21027;-56
2023/04/30 06:40:52;;;;;;;4.55;1.50;;;;;;;11.31;46.46;100123.44;1757337;80;21466;-56
2023/04/30 06:43:20;;;;;;;5.03;1.60;;;;;;;11.34;46.26;100121.64;1757232;80;21423;-56
2023/04/30 06:45:50;;;;;;;3.72;1.72;;;;;;;11.36;45.85;100112.15;1757634;81;21016;-55
2023/04/30 06:48:20;;;;;;;6.12;1.40;;;;;;;11.36;45.79;100109.93;1757627;82;21035;-57
2023/04/30 06:50:49;;;;;;;2.67;1.50;;;;;;;11.37;45.72;100110.25;1757443;82;21050;-57
2023/04/30 06:53:19;;;;;;;4.70;1.42;;;;;;;11.35;44.86;100106.88;1757432;82;20984;-56
2023/04/30 06:55:48;;;;;;;4.22;1.50;;;;;;;11.34;44.95;100114.78;1740618;82;21019;-57
2023/04/30 06:58:18;;;;;;;2.10;1.30;;;;;;;11.37;44.95;100109.72;1757331;82;20983;-56
2023/04/30 07:00:47;;;;;;;5.25;1.50;;;;;;;11.44;45.04;100106.45;1757133;82;21043;-57
2023/04/30 07:03:16;;;;;;;3.30;1.40;;;;;;;11.50;44.15;100103.39;1757140;82;21011;-56
2023/04/30 07:05:45;;;;;;;4.92;1.60;;;;;;;11.53;43.97;100096.11;1757313;81;21051;-56
2023/04/30 07:08:14;;;;;;;2.52;1.42;;;;;;;11.54;43.95;100092.84;1757135;82;21061;-57
2023/04/30 07:10:43;;;;;;;1.92;1.02;;;;;;;11.58;43.92;100094.95;1757122;82;21043;-58
2023/04/30 07:13:11;;;;;;;3.20;1.35;;;;;;;11.64;43.44;100093.26;1757116;82;21063;-56
2023/04/30 07:15:41;;;;;;;2.55;1.22;;;;;;;11.66;43.06;100075.52;1757360;82;21019;-56
2023/04/30 07:18:10;;;;;;;2.77;1.30;;;;;;;11.68;42.43;100074.78;1757155;82;21020;-56
2023/04/30 07:20:39;;;;;;;3.55;1.22;;;;;;;11.65;42.14;100061.48;1757340;82;21066;-57
2023/04/30 07:23:08;;;;;;;4.22;1.30;;;;;;;11.66;41.62;100070.03;1757151;82;21082;-55
2023/04/30 07:25:39;;;;;;;3.80;1.40;;;;;;;11.66;41.63;100065.08;1757063;80;21443;-57
2023/04/30 07:28:09;;;;;;;2.62;1.27;;;;;;;11.68;41.97;100065.17;1757222;82;21043;-57
2023/04/30 07:30:38;;;;;;;2.92;1.25;;;;;;;11.72;41.82;100062.35;1757137;81;21020;-57
2023/04/30 07:33:08;;;;;;;5.03;1.00;;;;;;;11.79;41.62;100072.51;1757116;82;21042;-57
2023/04/30 07:35:37;;;;;;;2.17;1.42;;;;;;;11.83;41.35;100066.91;1757091;82;21063;-57
2023/04/30 07:38:06;;;;;;;2.15;1.25;;;;;;;11.82;40.89;100064.69;1757134;82;21423;-55
2023/04/30 07:40:36;;;;;;;3.95;1.37;;;;;;;11.83;41.25;100061.42;1757243;82;21027;-56
2023/04/30 07:43:05;;;;;;;4.90;1.15;;;;;;;11.81;41.03;100060.25;1757127;82;21462;-56
2023/04/30 07:45:36;;;;;;;2.37;1.40;;;;;;;11.82;40.57;100059.20;1757033;82;21063;-56
2023/04/30 07:48:05;;;;;;;1.87;1.10;;;;;;;11.85;40.47;100056.55;1757033;82;21102;-57
2023/04/30 07:50:36;;;;;;;3.90;1.10;;;;;;;11.86;40.43;100058.23;1757018;82;20995;-57
2023/04/30 07:53:08;;;;;;;5.40;1.37;;;;;;;11.88;40.46;100064.36;1757522;82;20992;-56
2023/04/30 07:55:36;;;;;;;2.30;1.10;;;;;;;11.88;40.17;100043.77;1757115;82;21019;-55
2023/04/30 07:58:05;;;;;;;3.58;1.07;;;;;;;11.89;39.99;100048.20;1757330;82;21015;-57
2023/04/30 08:00:34;;;;;;;5.05;1.35;;;;;;;11.93;39.68;100046.19;1757082;82;21015;-55
2023/04/30 08:03:05;;;;;;;1.98;1.20;;;;;;;11.96;39.07;100045.75;1765744;80;21499;-57
2023/04/30 08:05:34;;;;;;;4.12;1.45;;;;;;;11.95;39.78;100041.85;1757192;80;21073;-57
2023/04/30 08:08:04;;;;;;;5.92;1.25;;;;;;;11.99;39.41;100040.36;1756931;82;21054;-57
2023/04/30 08:10:32;;;;;;;4.08;1.32;;;;;;;11.98;38.26;100041.42;1756842;82;21025;-59
2023/04/30 08:13:03;;;;;;;4.55;1.50;;;;;;;11.95;38.72;100037.73;1757225;82;20978;-56
2023/04/30 08:15:33;;;;;;;3.05;1.02;;;;;;;11.94;39.26;100042.38;1730338;82;21091;-56
2023/04/30 08:18:04;;;;;;;2.95;1.00;;;;;;;11.96;38.92;100045.75;1756881;80;21357;-56
2023/04/30 08:20:33;;;;;;;2.22;1.10;;;;;;;11.98;38.48;100038.14;1756865;82;21085;-59
2023/04/30 08:23:04;;;;;;;7.20;1.10;;;;;;;11.99;38.53;100043.11;1778987;80;21063;-58
2023/04/30 08:25:33;;;;;;;2.55;1.12;;;;;;;12.03;38.79;100051.23;1714923;83;21097;-56
2023/04/30 08:28:02;;;;;;;4.90;1.12;;;;;;;12.06;38.96;100040.66;1692249;85;21067;-57
2023/04/30 08:30:30;;;;;;;2.45;1.05;;;;;;;12.12;38.80;100042.22;1730769;82;21071;-58
2023/04/30 08:33:00;;;;;;;2.72;1.20;;;;;;;12.17;38.58;100043.78;1719805;83;21471;-58
2023/04/30 08:35:30;;;;;;;3.52;0.98;;;;;;;12.20;38.16;100038.70;1719623;83;21074;-56
2023/04/30 08:37:59;;;;;;;4.55;1.30;;;;;;;12.22;37.95;100032.99;1718966;83;21518;-59
2023/04/30 08:40:28;;;;;;;1.57;1.22;;;;;;;12.21;38.29;100039.02;1692385;84;21120;-56
2023/04/30 08:43:07;;;;;;;2.37;1.02;;;;;;;12.23;38.26;100027.28;1689833;85;21084;-56
2023/04/30 08:45:36;;;;;;;3.62;0.93;;;;;;;12.24;38.27;100036.36;1692408;83;21041;-57
2023/04/30 08:48:09;;;;;;;4.12;1.42;;;;;;;12.27;38.05;100034.02;1680464;84;21051;-57
2023/04/30 08:50:38;;;;;;;7.97;2.02;;;;;;;12.29;37.93;100033.28;1758970;81;21011;-57
2023/04/30 08:53:11;;;;;;;5.22;1.30;;;;;;;12.31;38.11;100020.70;1759054;81;21066;-60
2023/04/30 08:55:40;;;;;;;2.83;1.40;;;;;;;12.33;37.75;100018.05;1754811;81;21182;-59
2023/04/30 08:58:10;;;;;;;2.17;1.05;;;;;;;12.36;38.06;100016.27;1743717;82;21024;-58
2023/04/30 09:00:39;;;;;;;4.00;1.10;;;;;;;12.40;37.89;100020.80;1743829;82;21048;-60
2023/04/30 09:03:08;;;;;;;3.12;1.20;;;;;;;12.45;37.57;100027.00;1743908;81;21529;-56
2023/04/30 09:05:37;;;;;;;3.55;1.10;;;;;;;12.47;37.29;100022.12;1743980;82;21016;-57
2023/04/30 09:08:10;;;;;;;2.67;1.10;;;;;;;12.49;37.30;100013.98;1743719;82;21044;-59
2023/04/30 09:10:38;;;;;;;3.45;1.27;;;;;;;12.50;37.24;100014.82;1743769;82;21060;-58
2023/04/30 09:13:08;;;;;;;5.00;1.37;;;;;;;12.48;36.96;100021.91;1744104;81;21012;-57
2023/04/30 09:15:37;;;;;;;2.37;1.22;;;;;;;12.45;36.94;100018.76;1743850;82;21056;-59
2023/04/30 09:18:17;;;;;;;1.72;1.00;;;;;;;12.46;37.28;100008.92;1743666;82;21016;-59
2023/04/30 09:21:03;;;;;;;4.25;1.10;;;;;;;12.51;37.15;100014.59;1743965;82;21061;-58
2023/04/30 09:23:32;;;;;;;1.30;0.90;;;;;;;12.57;37.24;100012.34;1743856;82;21124;-57
2023/04/30 09:26:01;;;;;;;2.52;1.00;;;;;;;12.64;37.13;100015.90;1743713;82;21060;-58
2023/04/30 09:28:30;;;;;;;5.50;2.10;;;;;;;12.68;37.16;100005.30;1743960;82;21079;-58
2023/04/30 09:31:01;;;;;;;2.42;1.30;;;;;;;12.73;37.26;100012.36;1765813;81;21058;-58
2023/04/30 09:33:37;;;;;;;6.58;1.30;;;;;;;12.83;37.21;100015.45;1706792;84;21111;-57
2023/04/30 09:36:10;;;;;;;3.12;1.30;;;;;;;12.91;36.96;100017.94;1771013;81;21083;-58
2023/04/30 09:38:38;;;;;;;2.02;1.07;;;;;;;12.98;37.10;100009.64;1772629;80;20993;-58
2023/04/30 09:41:25;;;;;;;5.55;1.42;;;;;;;13.06;36.95;100001.69;1706553;83;21110;-59
2023/04/30 09:43:56;;;;;;;2.40;0.95;;;;;;;13.11;35.96;99991.69;1754426;81;21055;-58
2023/04/30 09:46:39;;;;;;;2.15;0.95;;;;;;;13.16;36.15;100000.64;1772870;81;21470;-58
2023/04/30 09:49:06;;;;;;;4.65;1.80;;;;;;;13.25;35.31;99998.80;1772673;80;21036;-58
2023/04/30 09:51:35;;;;;;;5.15;1.35;;;;;;;13.34;35.17;100000.73;1706371;84;21110;-57
2023/04/30 09:54:04;;;;;;;8.28;2.27;;;;;;;13.41;34.71;99990.50;1750132;81;21523;-56
2023/04/30 09:56:33;;;;;;;10.38;4.00;;;;;;;13.45;34.81;99991.73;1750928;81;21345;-59
2023/04/30 09:59:03;;;;;;;4.25;1.55;;;;;;;13.52;34.91;99979.28;1706563;84;21087;-58
2023/04/30 10:01:32;;;;;;;5.65;1.50;;;;;;;13.57;33.77;99984.95;1772840;81;21011;-59
2023/04/30 10:04:01;;;;;;;1.87;1.10;;;;;;;13.57;33.56;99989.08;1706641;84;21024;-57
2023/04/30 10:06:34;;;;;;;4.05;1.05;;;;;;;13.49;33.14;99981.95;1772904;81;21075;-58
2023/04/30 10:09:01;;;;;;;2.30;1.10;;;;;;;13.44;33.68;99987.83;1773616;81;21059;-57
2023/04/30 10:11:30;;;;;;;4.90;1.15;;;;;;;13.45;33.72;99997.23;1707774;84;21080;-60
2023/04/30 10:14:12;;;;;;;3.12;0.95;;;;;;;13.44;33.62;99981.80;1773296;81;21008;-57
2023/04/30 10:16:46;;;;;;;2.37;0.93;;;;;;;13.43;33.80;99980.11;1772697;81;21109;-58
2023/04/30 10:19:22;;;;;;;4.78;1.00;;;;;;;13.44;33.99;99972.16;1772855;81;21039;-58
2023/04/30 10:21:51;;;;;;;5.05;1.20;;;;;;;13.51;33.84;99977.06;1772474;80;21016;-58
2023/04/30 10:24:20;;;;;;;5.37;0.98;;;;;;;13.56;33.58;99966.75;1699484;84;21071;-58
2023/04/30 10:26:48;;;;;;;1.95;1.07;;;;;;;13.58;33.08;99976.99;1748822;81;21436;-58
2023/04/30 10:29:17;;;;;;;3.35;1.10;;;;;;;13.61;32.95;99966.91;1772735;81;21059;-57
2023/04/30 10:31:48;;;;;;;3.90;1.17;;;;;;;13.62;32.90;99974.94;1758033;81;21048;-58
2023/04/30 10:34:46;;;;;;;1.65;0.95;;;;;;;13.63;32.61;99965.61;1774308;81;21024;-59
2023/04/30 10:37:47;;;;;;;5.53;1.10;;;;;;;13.61;33.38;99973.25;1774386;80;20984;-58
2023/04/30 10:40:17;;;;;;;3.00;1.02;;;;;;;13.63;33.47;99960.10;1760808;80;21008;-59
2023/04/30 10:42:48;;;;;;;2.00;1.20;;;;;;;13.61;33.95;99969.13;1733573;82;21059;-58
2023/04/30 10:45:19;;;;;;;1.60;1.10;;;;;;;13.59;34.58;99961.63;1743687;82;21016;-57
2023/04/30 10:47:48;;;;;;;2.55;0.98;;;;;;;13.61;34.73;99962.77;1709825;82;21066;-59
2023/04/30 10:50:19;;;;;;;1.90;1.07;;;;;;;13.61;35.02;99952.61;1715663;83;21509;-60
2023/04/30 10:52:50;;;;;;;2.02;1.25;;;;;;;13.59;35.61;99958.03;1643218;83;21003;-57
2023/04/30 10:55:19;;;;;;;3.70;1.20;;;;;;;13.56;35.73;99954.36;1666028;83;21030;-59
2023/04/30 10:57:50;;;;;;;2.12;1.10;;;;;;;13.55;36.09;99956.27;1637532;85;21023;-60
2023/04/30 11:00:32;;;;;;;3.00;1.20;;;;;;;13.56;35.86;99949.70;1751418;82;21028;-59
2023/04/30 11:03:13;;;;;;;3.00;1.20;;;;;;;13.59;35.95;99942.89;1751730;82;21020;-58
2023/04/30 11:05:51;;;;;;;7.92;1.50;;;;;;;13.61;35.83;99951.23;1751610;80;21012;-58
2023/04/30 11:08:35;;;;;;;3.50;1.42;;;;;;;13.61;35.66;99939.37;1751783;81;21043;-59
2023/04/30 11:11:26;;;;;;;3.08;1.17;;;;;;;13.62;35.61;99940.52;1744576;81;21131;-59
2023/04/30 11:13:59;;;;;;;3.08;1.50;;;;;;;13.64;35.41;99945.27;1751726;82;21046;-58
2023/04/30 11:16:33;;;;;;;7.67;2.55;;;;;;;13.60;35.50;99935.78;1751469;82;21044;-59
2023/04/30 11:19:11;;;;;;;5.30;1.37;;;;;;;13.58;35.71;99932.42;1751517;81;21519;-57
2023/04/30 11:22:08;;;;;;;3.05;1.30;;;;;;;13.56;36.27;99943.35;1733941;82;21059;-56
2023/04/30 11:25:04;;;;;;;10.75;3.58;;;;;;;13.60;36.04;99939.91;1751465;80;21050;-56
2023/04/30 11:27:34;;;;;;;1.95;1.10;;;;;;;13.63;36.35;99936.70;1751449;82;21478;-60
2023/04/30 11:30:06;;;;;;;3.15;0.98;;;;;;;13.64;35.95;99934.25;1763342;80;20996;-58
2023/04/30 11:32:37;;;;;;;4.03;1.20;;;;;;;13.64;35.64;99928.75;1782414;80;21024;-56
2023/04/30 11:35:07;;;;;;;2.95;1.20;;;;;;;13.67;35.63;99934.90;1782434;79;21027;-58
2023/04/30 11:37:39;;;;;;;11.97;4.97;;;;;;;13.63;35.35;99935.33;1782853;80;21075;-58
2023/04/30 11:40:10;;;;;;;5.12;1.25;;;;;;;13.60;35.66;99930.81;1782235;79;21498;-58
2023/04/30 11:42:40;;;;;;;3.72;1.20;;;;;;;13.62;35.31;99934.17;1782658;80;21048;-59
2023/04/30 11:45:19;;;;;;;3.62;1.30;;;;;;;13.57;35.27;99932.11;1782546;80;21000;-59
2023/04/30 11:47:50;;;;;;;5.05;2.22;;;;;;;13.55;35.09;99937.00;1781687;79;21463;-58